sensor_id;sensor_type;location;lat;lon;timestamp;temperature;humidity
21805;DHT22;11064;47.102;15.452;2022-11-30T05:02:48;2.30;99.90
21805;DHT22;11064;47.102;15.452;2022-11-30T05:05:15;2.20;99.90
21805;DHT22;11064;47.102;15.452;2022-11-30T05:07:41;2.30;99.90
21805;DHT22;11064;47.102;15.452;2022-11-30T05:10:08;2.30;99.90
21805;DHT22;11064;47.102;15.452;2022-11-30T05:12:34;2.30;99.90
21805;DHT22;11064;47.102;15.452;2022-11-30T05:14:59;2.30;99.90
21805;DHT22;11064;47.102;15.452;2022-11-30T05:17:25;2.30;99.90
21805;DHT22;11064;47.102;15.452;2022-11-30T05:19:51;2.20;99.90
21805;DHT22;11064;47.102;15.452;2022-11-30T05:22:17;2.20;99.90
21805;DHT22;11064;47.102;15.452;2022-11-30T05:24:43;2.10;99.90
21805;DHT22;11064;47.102;15.452;2022-11-30T05:27:08;2.10;99.90
21805;DHT22;11064;47.102;15.452;2022-11-30T05:29:34;2.10;99.90
21805;DHT22;11064;47.102;15.452;2022-11-30T05:32:01;2.10;99.90
21805;DHT22;11064;47.102;15.452;2022-11-30T05:34:28;2.10;99.90
21805;DHT22;11064;47.102;15.452;2022-11-30T05:36:53;2.20;99.90
21805;DHT22;11064;47.102;15.452;2022-11-30T05:39:19;2.20;99.90
21805;DHT22;11064;47.102;15.452;2022-11-30T05:41:45;2.20;99.90
21805;DHT22;11064;47.102;15.452;2022-11-30T05:44:11;2.20;99.90
21805;DHT22;11064;47.102;15.452;2022-11-30T05:46:37;2.20;99.90
21805;DHT22;11064;47.102;15.452;2022-11-30T05:49:03;2.10;99.90
21805;DHT22;11064;47.102;15.452;2022-11-30T05:51:29;2.10;99.90
21805;DHT22;11064;47.102;15.452;2022-11-30T05:53:55;2.00;99.90
21805;DHT22;11064;47.102;15.452;2022-11-30T05:56:21;2.10;99.90
21805;DHT22;11064;47.102;15.452;2022-11-30T05:58:47;2.10;99.90
21805;DHT22;11064;47.102;15.452;2022-11-30T06:01:24;2.10;99.90
21805;DHT22;11064;47.102;15.452;2022-11-30T06:03:50;2.10;99.90
21805;DHT22;11064;47.102;15.452;2022-11-30T06:06:17;2.00;99.90
21805;DHT22;11064;47.102;15.452;2022-11-30T06:08:43;2.10;99.90
21805;DHT22;11064;47.102;15.452;2022-11-30T06:11:09;2.10;99.90
21805;DHT22;11064;47.102;15.452;2022-11-30T06:13:35;2.10;99.90
21805;DHT22;11064;47.102;15.452;2022-11-30T06:16:02;2.10;99.90
21805;DHT22;11064;47.102;15.452;2022-11-30T06:18:29;2.10;99.90
21805;DHT22;11064;47.102;15.452;2022-11-30T06:20:59;2.10;99.90
21805;DHT22;11064;47.102;15.452;2022-11-30T06:23:25;2.10;99.90
21805;DHT22;11064;47.102;15.452;2022-11-30T06:25:51;2.10;99.90
21805;DHT22;11064;47.102;15.452;2022-11-30T06:28:17;2.10;99.90
21805;DHT22;11064;47.102;15.452;2022-11-30T06:30:42;2.20;99.90
21805;DHT22;11064;47.102;15.452;2022-11-30T06:33:08;2.20;99.90
21805;DHT22;11064;47.102;15.452;2022-11-30T06:35:34;2.30;99.90
21805;DHT22;11064;47.102;15.452;2022-11-30T06:38:00;2.30;99.90
21805;DHT22;11064;47.102;15.452;2022-11-30T06:40:26;2.30;99.90
21805;DHT22;11064;47.102;15.452;2022-11-30T06:42:53;2.30;99.90
21805;DHT22;11064;47.102;15.452;2022-11-30T06:45:19;2.30;99.90
21805;DHT22;11064;47.102;15.452;2022-11-30T06:47:44;2.30;99.90
21805;DHT22;11064;47.102;15.452;2022-11-30T06:50:12;2.40;99.90
21805;DHT22;11064;47.102;15.452;2022-11-30T06:52:38;2.40;99.90
21805;DHT22;11064;47.102;15.452;2022-11-30T06:55:04;2.40;99.90
21805;DHT22;11064;47.102;15.452;2022-11-30T06:57:30;2.30;99.90
21805;DHT22;11064;47.102;15.452;2022-11-30T06:59:56;2.30;99.90
21805;DHT22;11064;47.102;15.452;2022-11-30T07:02:22;2.30;99.90
21805;DHT22;11064;47.102;15.452;2022-11-30T07:04:48;2.30;99.90
21805;DHT22;11064;47.102;15.452;2022-11-30T07:07:14;2.40;99.90
21805;DHT22;11064;47.102;15.452;2022-11-30T07:09:40;2.40;99.90
21805;DHT22;11064;47.102;15.452;2022-11-30T07:12:07;2.40;99.90
21805;DHT22;11064;47.102;15.452;2022-11-30T07:14:33;2.30;99.90
21805;DHT22;11064;47.102;15.452;2022-11-30T07:16:58;2.40;99.90
21805;DHT22;11064;47.102;15.452;2022-11-30T07:19:29;2.50;99.90
21805;DHT22;11064;47.102;15.452;2022-11-30T07:21:55;2.50;99.90
21805;DHT22;11064;47.102;15.452;2022-11-30T07:24:22;2.60;99.90
21805;DHT22;11064;47.102;15.452;2022-11-30T07:27:09;2.60;99.90
21805;DHT22;11064;47.102;15.452;2022-11-30T07:29:35;2.60;99.90
21805;DHT22;11064;47.102;15.452;2022-11-30T07:32:01;2.70;99.90
21805;DHT22;11064;47.102;15.452;2022-11-30T07:34:27;2.70;99.90
21805;DHT22;11064;47.102;15.452;2022-11-30T07:36:53;2.60;99.90
21805;DHT22;11064;47.102;15.452;2022-11-30T07:39:20;2.60;99.90
21805;DHT22;11064;47.102;15.452;2022-11-30T07:41:45;2.60;99.90
21805;DHT22;11064;47.102;15.452;2022-11-30T07:44:11;2.60;99.90
21805;DHT22;11064;47.102;15.452;2022-11-30T07:46:37;2.60;99.90
21805;DHT22;11064;47.102;15.452;2022-11-30T07:49:05;2.40;99.90
21805;DHT22;11064;47.102;15.452;2022-11-30T07:51:32;2.40;99.90
21805;DHT22;11064;47.102;15.452;2022-11-30T07:53:58;2.40;99.90
21805;DHT22;11064;47.102;15.452;2022-11-30T07:56:25;2.40;99.90
21805;DHT22;11064;47.102;15.452;2022-11-30T07:58:54;2.30;99.90
21805;DHT22;11064;47.102;15.452;2022-11-30T08:01:22;2.30;99.90
21805;DHT22;11064;47.102;15.452;2022-11-30T08:03:52;2.30;99.90
21805;DHT22;11064;47.102;15.452;2022-11-30T08:06:21;2.30;99.90
21805;DHT22;11064;47.102;15.452;2022-11-30T08:08:49;2.20;99.90
21805;DHT22;11064;47.102;15.452;2022-11-30T08:11:18;2.30;99.90
21805;DHT22;11064;47.102;15.452;2022-11-30T08:13:44;2.20;99.90
21805;DHT22;11064;47.102;15.452;2022-11-30T08:16:19;2.20;99.90
21805;DHT22;11064;47.102;15.452;2022-11-30T08:18:45;2.20;99.90
21805;DHT22;11064;47.102;15.452;2022-11-30T08:21:13;2.10;99.90
21805;DHT22;11064;47.102;15.452;2022-11-30T08:23:42;2.20;99.90
21805;DHT22;11064;47.102;15.452;2022-11-30T08:26:11;2.20;99.90
21805;DHT22;11064;47.102;15.452;2022-11-30T08:28:38;2.20;99.90
21805;DHT22;11064;47.102;15.452;2022-11-30T08:31:07;2.20;99.90
21805;DHT22;11064;47.102;15.452;2022-11-30T08:33:35;2.20;99.90
21805;DHT22;11064;47.102;15.452;2022-11-30T08:38:38;2.20;99.90
21805;DHT22;11064;47.102;15.452;2022-11-30T08:41:05;2.20;99.90
21805;DHT22;11064;47.102;15.452;2022-11-30T08:43:32;2.20;99.90
21805;DHT22;11064;47.102;15.452;2022-11-30T08:45:58;2.20;99.90
21805;DHT22;11064;47.102;15.452;2022-11-30T08:48:24;2.30;99.90
21805;DHT22;11064;47.102;15.452;2022-11-30T08:50:49;2.30;99.90
21805;DHT22;11064;47.102;15.452;2022-11-30T08:53:15;2.20;99.90
21805;DHT22;11064;47.102;15.452;2022-11-30T08:55:41;2.30;99.90
21805;DHT22;11064;47.102;15.452;2022-11-30T08:58:07;2.30;99.90
21805;DHT22;11064;47.102;15.452;2022-11-30T09:00:32;2.40;99.90
21805;DHT22;11064;47.102;15.452;2022-11-30T09:02:58;2.40;99.90
21805;DHT22;11064;47.102;15.452;2022-11-30T09:05:24;2.40;99.90
21805;DHT22;11064;47.102;15.452;2022-11-30T09:07:50;2.50;99.90
21805;DHT22;11064;47.102;15.452;2022-11-30T09:10:16;2.50;99.90
21805;DHT22;11064;47.102;15.452;2022-11-30T09:12:41;2.50;99.90
21805;DHT22;11064;47.102;15.452;2022-11-30T09:15:08;2.60;99.90
21805;DHT22;11064;47.102;15.452;2022-11-30T09:17:35;2.70;99.90
21805;DHT22;11064;47.102;15.452;2022-11-30T09:20:01;2.80;99.90
21805;DHT22;11064;47.102;15.452;2022-11-30T09:22:27;3.00;99.90
21805;DHT22;11064;47.102;15.452;2022-11-30T09:24:53;3.10;99.90
21805;DHT22;11064;47.102;15.452;2022-11-30T09:27:20;3.40;99.90
21805;DHT22;11064;47.102;15.452;2022-11-30T09:29:45;3.60;99.90
21805;DHT22;11064;47.102;15.452;2022-11-30T09:32:11;3.70;99.90
21805;DHT22;11064;47.102;15.452;2022-11-30T09:34:37;3.80;99.90
21805;DHT22;11064;47.102;15.452;2022-11-30T09:37:03;3.80;99.90
21805;DHT22;11064;47.102;15.452;2022-11-30T09:39:29;3.70;99.90
21805;DHT22;11064;47.102;15.452;2022-11-30T09:42:47;3.80;99.90
21805;DHT22;11064;47.102;15.452;2022-11-30T09:45:19;3.80;99.90
21805;DHT22;11064;47.102;15.452;2022-11-30T09:48:06;3.70;99.90
21805;DHT22;11064;47.102;15.452;2022-11-30T09:50:38;3.70;99.90
21805;DHT22;11064;47.102;15.452;2022-11-30T09:53:20;3.60;99.90
21805;DHT22;11064;47.102;15.452;2022-11-30T09:55:47;3.50;99.90
21805;DHT22;11064;47.102;15.452;2022-11-30T10:00:49;3.40;99.90
21805;DHT22;11064;47.102;15.452;2022-11-30T10:03:15;3.30;99.90
21805;DHT22;11064;47.102;15.452;2022-11-30T10:06:07;3.40;99.90
21805;DHT22;11064;47.102;15.452;2022-11-30T10:08:56;3.50;99.90
21805;DHT22;11064;47.102;15.452;2022-11-30T10:11:50;3.40;99.90
21805;DHT22;11064;47.102;15.452;2022-11-30T10:19:52;3.60;99.90
21805;DHT22;11064;47.102;15.452;2022-11-30T10:25:20;3.50;99.90
21805;DHT22;11064;47.102;15.452;2022-11-30T10:27:48;3.60;99.90
21805;DHT22;11064;47.102;15.452;2022-11-30T10:30:18;3.70;99.90
21805;DHT22;11064;47.102;15.452;2022-11-30T10:32:52;3.60;99.90
21805;DHT22;11064;47.102;15.452;2022-11-30T10:35:41;3.70;99.90
21805;DHT22;11064;47.102;15.452;2022-11-30T10:38:29;3.70;99.90
21805;DHT22;11064;47.102;15.452;2022-11-30T10:41:11;3.80;99.90
21805;DHT22;11064;47.102;15.452;2022-11-30T10:43:46;3.70;99.90
21805;DHT22;11064;47.102;15.452;2022-11-30T10:46:20;3.60;99.90
21805;DHT22;11064;47.102;15.452;2022-11-30T10:49:07;3.50;99.90
21805;DHT22;11064;47.102;15.452;2022-11-30T10:51:39;3.50;99.90
21805;DHT22;11064;47.102;15.452;2022-11-30T10:54:18;3.60;99.90
21805;DHT22;11064;47.102;15.452;2022-11-30T10:56:46;3.60;99.90
21805;DHT22;11064;47.102;15.452;2022-11-30T10:59:46;3.80;99.90
21805;DHT22;11064;47.102;15.452;2022-11-30T11:02:38;3.70;99.90
21805;DHT22;11064;47.102;15.452;2022-11-30T11:07:57;3.80;99.90
21805;DHT22;11064;47.102;15.452;2022-11-30T11:10:35;3.80;99.90
21805;DHT22;11064;47.102;15.452;2022-11-30T11:13:02;3.80;99.90
21805;DHT22;11064;47.102;15.452;2022-11-30T11:15:33;3.80;99.90
21805;DHT22;11064;47.102;15.452;2022-11-30T11:18:19;3.80;99.90
21805;DHT22;11064;47.102;15.452;2022-11-30T11:20:47;3.90;99.90
21805;DHT22;11064;47.102;15.452;2022-11-30T11:23:37;4.10;99.90
21805;DHT22;11064;47.102;15.452;2022-11-30T11:26:05;4.10;99.90
21805;DHT22;11064;47.102;15.452;2022-11-30T11:28:34;4.10;99.90
21805;DHT22;11064;47.102;15.452;2022-11-30T11:31:21;4.10;99.90
21805;DHT22;11064;47.102;15.452;2022-11-30T11:33:54;4.00;99.90
21805;DHT22;11064;47.102;15.452;2022-11-30T11:36:26;3.90;99.90
21805;DHT22;11064;47.102;15.452;2022-11-30T11:38:52;3.90;99.90
21805;DHT22;11064;47.102;15.452;2022-11-30T11:41:29;3.90;99.90
21805;DHT22;11064;47.102;15.452;2022-11-30T11:46:36;3.90;99.90
21805;DHT22;11064;47.102;15.452;2022-11-30T11:49:05;3.90;99.90
21805;DHT22;11064;47.102;15.452;2022-11-30T11:51:36;3.90;99.90
21805;DHT22;11064;47.102;15.452;2022-11-30T11:56:47;3.70;99.90
21805;DHT22;11064;47.102;15.452;2022-11-30T12:05:34;3.90;99.90
21805;DHT22;11064;47.102;15.452;2022-11-30T12:10:45;3.80;99.90
21805;DHT22;11064;47.102;15.452;2022-11-30T12:13:21;3.80;99.90
21805;DHT22;11064;47.102;15.452;2022-11-30T12:15:53;3.80;99.90
21805;DHT22;11064;47.102;15.452;2022-11-30T12:21:22;3.90;99.90
21805;DHT22;11064;47.102;15.452;2022-11-30T12:29:05;3.80;99.90
21805;DHT22;11064;47.102;15.452;2022-11-30T12:32:02;3.80;99.90
21805;DHT22;11064;47.102;15.452;2022-11-30T12:37:22;3.70;99.90
21805;DHT22;11064;47.102;15.452;2022-11-30T12:42:57;3.70;99.90
21805;DHT22;11064;47.102;15.452;2022-11-30T12:45:48;3.70;99.90
21805;DHT22;11064;47.102;15.452;2022-11-30T12:48:44;3.80;99.90
21805;DHT22;11064;47.102;15.452;2022-11-30T12:51:20;3.70;99.90
21805;DHT22;11064;47.102;15.452;2022-11-30T12:56:51;3.70;99.90
21805;DHT22;11064;47.102;15.452;2022-11-30T13:02:11;3.80;99.90
21805;DHT22;11064;47.102;15.452;2022-11-30T13:07:39;3.60;99.90
21805;DHT22;11064;47.102;15.452;2022-11-30T13:12:46;3.80;99.90
21805;DHT22;11064;47.102;15.452;2022-11-30T13:15:19;3.80;99.90
21805;DHT22;11064;47.102;15.452;2022-11-30T13:17:47;3.70;99.90
21805;DHT22;11064;47.102;15.452;2022-11-30T13:23:14;3.70;99.90
21805;DHT22;11064;47.102;15.452;2022-11-30T13:31:23;3.60;99.90
21805;DHT22;11064;47.102;15.452;2022-11-30T13:36:43;3.60;99.90
21805;DHT22;11064;47.102;15.452;2022-11-30T13:41:46;3.50;99.90
21805;DHT22;11064;47.102;15.452;2022-11-30T13:44:36;3.50;99.90
21805;DHT22;11064;47.102;15.452;2022-11-30T13:47:30;3.40;99.90
21805;DHT22;11064;47.102;15.452;2022-11-30T13:50:03;3.30;99.90
21805;DHT22;11064;47.102;15.452;2022-11-30T13:55:48;3.30;99.90
21805;DHT22;11064;47.102;15.452;2022-11-30T13:58:15;3.30;99.90
21805;DHT22;11064;47.102;15.452;2022-11-30T14:00:45;3.20;99.90
21805;DHT22;11064;47.102;15.452;2022-11-30T14:03:23;3.30;99.90
21805;DHT22;11064;47.102;15.452;2022-11-30T14:05:55;3.30;99.90
21805;DHT22;11064;47.102;15.452;2022-11-30T14:11:33;3.40;99.90
21805;DHT22;11064;47.102;15.452;2022-11-30T14:13:37;3.30;99.90
21805;DHT22;11064;47.102;15.452;2022-11-30T14:16:04;3.40;99.90
21805;DHT22;11064;47.102;15.452;2022-11-30T14:18:41;3.40;99.90
21805;DHT22;11064;47.102;15.452;2022-11-30T14:21:31;3.40;99.90
21805;DHT22;11064;47.102;15.452;2022-11-30T14:24:02;3.40;99.90
21805;DHT22;11064;47.102;15.452;2022-11-30T14:26:36;3.30;99.90
21805;DHT22;11064;47.102;15.452;2022-11-30T14:29:20;3.40;99.90
21805;DHT22;11064;47.102;15.452;2022-11-30T14:31:57;3.40;99.90
21805;DHT22;11064;47.102;15.452;2022-11-30T14:34:29;3.30;99.90
21805;DHT22;11064;47.102;15.452;2022-11-30T14:39:42;3.20;99.90
21805;DHT22;11064;47.102;15.452;2022-11-30T14:44:47;3.10;99.90
21805;DHT22;11064;47.102;15.452;2022-11-30T14:47:27;3.10;99.90
21805;DHT22;11064;47.102;15.452;2022-11-30T14:49:55;3.00;99.90
21805;DHT22;11064;47.102;15.452;2022-11-30T14:52:48;3.00;99.90
21805;DHT22;11064;47.102;15.452;2022-11-30T14:55:27;3.00;99.90
21805;DHT22;11064;47.102;15.452;2022-11-30T14:58:16;3.00;99.90
21805;DHT22;11064;47.102;15.452;2022-11-30T15:00:44;3.00;99.90
21805;DHT22;11064;47.102;15.452;2022-11-30T15:03:27;3.00;99.90
21805;DHT22;11064;47.102;15.452;2022-11-30T15:06:03;3.00;99.90
21805;DHT22;11064;47.102;15.452;2022-11-30T15:08:41;2.90;99.90
21805;DHT22;11064;47.102;15.452;2022-11-30T15:11:10;2.90;99.90
21805;DHT22;11064;47.102;15.452;2022-11-30T15:14:07;2.90;99.90
21805;DHT22;11064;47.102;15.452;2022-11-30T15:16:28;2.90;99.90
21805;DHT22;11064;47.102;15.452;2022-11-30T15:18:56;2.90;99.90
21805;DHT22;11064;47.102;15.452;2022-11-30T15:21:31;2.80;99.90
21805;DHT22;11064;47.102;15.452;2022-11-30T15:23:59;2.80;99.90
21805;DHT22;11064;47.102;15.452;2022-11-30T15:26:36;2.90;99.90
21805;DHT22;11064;47.102;15.452;2022-11-30T15:29:24;2.80;99.90
21805;DHT22;11064;47.102;15.452;2022-11-30T15:31:51;2.80;99.90
21805;DHT22;11064;47.102;15.452;2022-11-30T15:34:38;2.80;99.90
21805;DHT22;11064;47.102;15.452;2022-11-30T15:37:08;2.80;99.90
21805;DHT22;11064;47.102;15.452;2022-11-30T15:39:35;2.90;99.90
21805;DHT22;11064;47.102;15.452;2022-11-30T15:42:03;3.00;99.90
21805;DHT22;11064;47.102;15.452;2022-11-30T15:47:01;3.00;99.90
21805;DHT22;11064;47.102;15.452;2022-11-30T15:49:29;3.00;99.90
21805;DHT22;11064;47.102;15.452;2022-11-30T15:52:15;3.00;99.90
21805;DHT22;11064;47.102;15.452;2022-11-30T15:57:08;3.10;99.90
21805;DHT22;11064;47.102;15.452;2022-11-30T15:59:34;3.10;99.90
21805;DHT22;11064;47.102;15.452;2022-11-30T16:02:01;3.10;99.90
21805;DHT22;11064;47.102;15.452;2022-11-30T16:07:34;3.00;99.90
21805;DHT22;11064;47.102;15.452;2022-11-30T16:10:05;3.00;99.90
21805;DHT22;11064;47.102;15.452;2022-11-30T16:12:31;3.00;99.90
21805;DHT22;11064;47.102;15.452;2022-11-30T16:14:57;2.90;99.90
21805;DHT22;11064;47.102;15.452;2022-11-30T16:17:23;3.00;99.90
21805;DHT22;11064;47.102;15.452;2022-11-30T16:19:51;2.90;99.90
21805;DHT22;11064;47.102;15.452;2022-11-30T16:22:18;2.90;99.90
21805;DHT22;11064;47.102;15.452;2022-11-30T16:24:44;3.00;99.90
21805;DHT22;11064;47.102;15.452;2022-11-30T16:27:19;3.00;99.90
21805;DHT22;11064;47.102;15.452;2022-11-30T16:29:46;3.00;99.90
21805;DHT22;11064;47.102;15.452;2022-11-30T16:32:16;2.90;99.90
21805;DHT22;11064;47.102;15.452;2022-11-30T16:34:42;3.00;99.90
21805;DHT22;11064;47.102;15.452;2022-11-30T16:37:11;3.10;99.90
21805;DHT22;11064;47.102;15.452;2022-11-30T16:39:40;3.10;99.90
21805;DHT22;11064;47.102;15.452;2022-11-30T16:42:10;3.10;99.90
21805;DHT22;11064;47.102;15.452;2022-11-30T16:44:37;3.10;99.90
21805;DHT22;11064;47.102;15.452;2022-11-30T16:47:04;3.10;99.90
21805;DHT22;11064;47.102;15.452;2022-11-30T16:49:30;3.10;99.90
21805;DHT22;11064;47.102;15.452;2022-11-30T16:51:56;3.10;99.90
21805;DHT22;11064;47.102;15.452;2022-11-30T16:54:22;3.00;99.90
21805;DHT22;11064;47.102;15.452;2022-11-30T16:56:48;3.00;99.90
21805;DHT22;11064;47.102;15.452;2022-11-30T16:59:14;3.00;99.90
21805;DHT22;11064;47.102;15.452;2022-11-30T17:01:47;3.00;99.90
21805;DHT22;11064;47.102;15.452;2022-11-30T17:04:21;2.90;99.90
21805;DHT22;11064;47.102;15.452;2022-11-30T17:06:48;2.90;99.90
21805;DHT22;11064;47.102;15.452;2022-11-30T17:09:15;2.90;99.90
21805;DHT22;11064;47.102;15.452;2022-11-30T17:11:42;2.90;99.90
21805;DHT22;11064;47.102;15.452;2022-11-30T17:14:13;2.90;99.90
21805;DHT22;11064;47.102;15.452;2022-11-30T17:16:40;2.80;99.90
21805;DHT22;11064;47.102;15.452;2022-11-30T17:19:06;2.80;99.90
21805;DHT22;11064;47.102;15.452;2022-11-30T17:21:35;2.90;99.90
21805;DHT22;11064;47.102;15.452;2022-11-30T17:24:02;2.80;99.90
21805;DHT22;11064;47.102;15.452;2022-11-30T17:26:28;2.80;99.90
21805;DHT22;11064;47.102;15.452;2022-11-30T17:28:55;2.80;99.90
21805;DHT22;11064;47.102;15.452;2022-11-30T17:31:21;2.80;99.90
21805;DHT22;11064;47.102;15.452;2022-11-30T17:33:48;2.70;99.90
21805;DHT22;11064;47.102;15.452;2022-11-30T17:36:15;2.80;99.90
21805;DHT22;11064;47.102;15.452;2022-11-30T17:38:41;2.80;99.90
21805;DHT22;11064;47.102;15.452;2022-11-30T17:41:14;2.80;99.90
21805;DHT22;11064;47.102;15.452;2022-11-30T17:43:40;2.80;99.90
21805;DHT22;11064;47.102;15.452;2022-11-30T17:46:09;2.80;99.90
21805;DHT22;11064;47.102;15.452;2022-11-30T17:48:36;2.80;99.90
21805;DHT22;11064;47.102;15.452;2022-11-30T17:51:03;2.80;99.90
21805;DHT22;11064;47.102;15.452;2022-11-30T17:53:30;2.80;99.90
21805;DHT22;11064;47.102;15.452;2022-11-30T17:56:05;2.80;99.90
21805;DHT22;11064;47.102;15.452;2022-11-30T17:58:32;2.80;99.90
21805;DHT22;11064;47.102;15.452;2022-11-30T18:00:58;2.80;99.90
21805;DHT22;11064;47.102;15.452;2022-11-30T18:03:24;2.80;99.90
21805;DHT22;11064;47.102;15.452;2022-11-30T18:05:50;2.90;99.90
21805;DHT22;11064;47.102;15.452;2022-11-30T18:08:17;2.90;99.90
21805;DHT22;11064;47.102;15.452;2022-11-30T18:10:43;2.90;99.90
21805;DHT22;11064;47.102;15.452;2022-11-30T18:13:11;2.90;99.90
21805;DHT22;11064;47.102;15.452;2022-11-30T18:15:37;2.90;99.90
21805;DHT22;11064;47.102;15.452;2022-11-30T18:18:03;2.90;99.90
21805;DHT22;11064;47.102;15.452;2022-11-30T18:20:29;3.00;99.90
21805;DHT22;11064;47.102;15.452;2022-11-30T18:22:55;3.00;99.90
21805;DHT22;11064;47.102;15.452;2022-11-30T18:25:21;3.00;99.90
21805;DHT22;11064;47.102;15.452;2022-11-30T18:27:51;3.00;99.90
21805;DHT22;11064;47.102;15.452;2022-11-30T18:30:19;2.90;99.90
21805;DHT22;11064;47.102;15.452;2022-11-30T18:32:46;2.90;99.90
21805;DHT22;11064;47.102;15.452;2022-11-30T18:35:12;3.00;99.90
21805;DHT22;11064;47.102;15.452;2022-11-30T18:37:39;2.90;99.90
21805;DHT22;11064;47.102;15.452;2022-11-30T18:40:05;2.90;99.90
21805;DHT22;11064;47.102;15.452;2022-11-30T18:42:32;2.80;99.90
21805;DHT22;11064;47.102;15.452;2022-11-30T18:44:59;2.80;99.90
21805;DHT22;11064;47.102;15.452;2022-11-30T18:47:25;2.80;99.90
21805;DHT22;11064;47.102;15.452;2022-11-30T18:49:51;2.80;99.90
21805;DHT22;11064;47.102;15.452;2022-11-30T18:52:17;2.70;99.90
21805;DHT22;11064;47.102;15.452;2022-11-30T18:54:44;2.70;99.90
21805;DHT22;11064;47.102;15.452;2022-11-30T18:57:11;2.60;99.90
21805;DHT22;11064;47.102;15.452;2022-11-30T18:59:37;2.60;99.90
21805;DHT22;11064;47.102;15.452;2022-11-30T19:02:06;2.60;99.90
21805;DHT22;11064;47.102;15.452;2022-11-30T19:04:33;2.60;99.90
21805;DHT22;11064;47.102;15.452;2022-11-30T19:06:59;2.60;99.90
21805;DHT22;11064;47.102;15.452;2022-11-30T19:09:25;2.60;99.90
21805;DHT22;11064;47.102;15.452;2022-11-30T19:11:52;2.60;99.90
21805;DHT22;11064;47.102;15.452;2022-11-30T19:14:18;2.60;99.90
21805;DHT22;11064;47.102;15.452;2022-11-30T19:16:45;2.60;99.90
21805;DHT22;11064;47.102;15.452;2022-11-30T19:19:16;2.50;99.90
21805;DHT22;11064;47.102;15.452;2022-11-30T19:21:44;2.50;99.90
21805;DHT22;11064;47.102;15.452;2022-11-30T19:24:14;2.50;99.90
21805;DHT22;11064;47.102;15.452;2022-11-30T19:26:40;2.50;99.90
21805;DHT22;11064;47.102;15.452;2022-11-30T19:29:09;2.50;99.90
21805;DHT22;11064;47.102;15.452;2022-11-30T19:31:38;2.60;99.90
21805;DHT22;11064;47.102;15.452;2022-11-30T19:34:05;2.70;99.90
21805;DHT22;11064;47.102;15.452;2022-11-30T19:36:31;2.70;99.90
21805;DHT22;11064;47.102;15.452;2022-11-30T19:38:58;2.60;99.90
21805;DHT22;11064;47.102;15.452;2022-11-30T19:41:25;2.70;99.90
21805;DHT22;11064;47.102;15.452;2022-11-30T19:43:58;2.60;99.90
21805;DHT22;11064;47.102;15.452;2022-11-30T19:46:26;2.60;99.90
21805;DHT22;11064;47.102;15.452;2022-11-30T19:48:57;2.70;99.90
21805;DHT22;11064;47.102;15.452;2022-11-30T19:51:26;2.70;99.90
21805;DHT22;11064;47.102;15.452;2022-11-30T19:53:56;2.60;99.90
21805;DHT22;11064;47.102;15.452;2022-11-30T19:56:25;2.70;99.90
21805;DHT22;11064;47.102;15.452;2022-11-30T19:58:53;2.60;99.90
21805;DHT22;11064;47.102;15.452;2022-11-30T20:01:22;2.60;99.90
21805;DHT22;11064;47.102;15.452;2022-11-30T20:03:51;2.70;99.90
21805;DHT22;11064;47.102;15.452;2022-11-30T20:06:18;2.70;99.90
21805;DHT22;11064;47.102;15.452;2022-11-30T20:08:45;2.70;99.90
21805;DHT22;11064;47.102;15.452;2022-11-30T20:11:13;2.70;99.90
21805;DHT22;11064;47.102;15.452;2022-11-30T20:13:40;2.70;99.90
21805;DHT22;11064;47.102;15.452;2022-11-30T20:16:14;2.70;99.90
21805;DHT22;11064;47.102;15.452;2022-11-30T20:18:43;2.70;99.90
21805;DHT22;11064;47.102;15.452;2022-11-30T20:21:18;2.70;99.90
21805;DHT22;11064;47.102;15.452;2022-11-30T20:23:46;2.70;99.90
21805;DHT22;11064;47.102;15.452;2022-11-30T20:26:20;2.70;99.90
21805;DHT22;11064;47.102;15.452;2022-11-30T20:28:49;2.80;99.90
21805;DHT22;11064;47.102;15.452;2022-11-30T20:31:18;2.80;99.90
21805;DHT22;11064;47.102;15.452;2022-11-30T20:33:44;2.80;99.90
21805;DHT22;11064;47.102;15.452;2022-11-30T20:36:12;2.90;99.90
21805;DHT22;11064;47.102;15.452;2022-11-30T20:38:39;2.90;99.90
21805;DHT22;11064;47.102;15.452;2022-11-30T20:41:11;3.00;99.90
21805;DHT22;11064;47.102;15.452;2022-11-30T20:43:38;2.90;99.90
21805;DHT22;11064;47.102;15.452;2022-11-30T20:46:24;2.80;99.90
21805;DHT22;11064;47.102;15.452;2022-11-30T20:48:52;2.90;99.90
21805;DHT22;11064;47.102;15.452;2022-11-30T20:51:23;2.90;99.90
21805;DHT22;11064;47.102;15.452;2022-11-30T20:53:49;2.80;99.90
21805;DHT22;11064;47.102;15.452;2022-11-30T20:56:17;2.80;99.90
21805;DHT22;11064;47.102;15.452;2022-11-30T20:58:43;2.80;99.90
21805;DHT22;11064;47.102;15.452;2022-11-30T21:01:12;2.80;99.90
21805;DHT22;11064;47.102;15.452;2022-11-30T21:03:39;2.80;99.90
21805;DHT22;11064;47.102;15.452;2022-11-30T21:06:06;2.80;99.90
21805;DHT22;11064;47.102;15.452;2022-11-30T21:08:33;2.80;99.90
21805;DHT22;11064;47.102;15.452;2022-11-30T21:11:04;2.80;99.90
21805;DHT22;11064;47.102;15.452;2022-11-30T21:13:31;2.70;99.90
21805;DHT22;11064;47.102;15.452;2022-11-30T21:15:58;2.60;99.90
21805;DHT22;11064;47.102;15.452;2022-11-30T21:18:23;2.70;99.90
21805;DHT22;11064;47.102;15.452;2022-11-30T21:20:50;2.60;99.90
21805;DHT22;11064;47.102;15.452;2022-11-30T21:23:16;2.50;99.90
21805;DHT22;11064;47.102;15.452;2022-11-30T21:25:42;2.40;99.90
21805;DHT22;11064;47.102;15.452;2022-11-30T21:28:10;2.40;99.90
21805;DHT22;11064;47.102;15.452;2022-11-30T21:30:37;2.40;99.90
21805;DHT22;11064;47.102;15.452;2022-11-30T21:33:04;2.40;99.90
21805;DHT22;11064;47.102;15.452;2022-11-30T21:35:30;2.40;99.90
21805;DHT22;11064;47.102;15.452;2022-11-30T21:37:55;2.40;99.90
21805;DHT22;11064;47.102;15.452;2022-11-30T21:40:21;2.40;99.90
21805;DHT22;11064;47.102;15.452;2022-11-30T21:42:47;2.30;99.90
21805;DHT22;11064;47.102;15.452;2022-11-30T21:45:13;2.30;99.90
21805;DHT22;11064;47.102;15.452;2022-11-30T21:47:39;2.30;99.90
21805;DHT22;11064;47.102;15.452;2022-11-30T21:50:05;2.30;99.90
21805;DHT22;11064;47.102;15.452;2022-11-30T21:52:31;2.30;99.90
21805;DHT22;11064;47.102;15.452;2022-11-30T21:54:56;2.30;99.90
21805;DHT22;11064;47.102;15.452;2022-11-30T21:57:22;2.40;99.90
21805;DHT22;11064;47.102;15.452;2022-11-30T21:59:48;2.30;99.90
21805;DHT22;11064;47.102;15.452;2022-11-30T22:02:14;2.30;99.90
21805;DHT22;11064;47.102;15.452;2022-11-30T22:04:40;2.30;99.90
21805;DHT22;11064;47.102;15.452;2022-11-30T22:07:07;2.30;99.90
21805;DHT22;11064;47.102;15.452;2022-11-30T22:09:35;2.20;99.90
21805;DHT22;11064;47.102;15.452;2022-11-30T22:12:01;2.20;99.90
21805;DHT22;11064;47.102;15.452;2022-11-30T22:14:27;2.20;99.90
21805;DHT22;11064;47.102;15.452;2022-11-30T22:16:53;2.20;99.90